sensor_id;sensor_type;location;lat;lon;timestamp;temperature;humidity
15638;DHT22;26604;53.596;10.042;2022-10-16T00:02:25;20.60;1.00
15638;DHT22;26604;53.596;10.042;2022-10-16T00:04:52;20.60;1.00
15638;DHT22;26604;53.596;10.042;2022-10-16T00:07:20;20.50;1.00
15638;DHT22;26604;53.596;10.042;2022-10-16T00:09:48;20.60;1.00
15638;DHT22;26604;53.596;10.042;2022-10-16T00:12:15;20.50;1.00
15638;DHT22;26604;53.596;10.042;2022-10-16T00:14:42;20.50;1.00
15638;DHT22;26604;53.596;10.042;2022-10-16T00:17:09;20.60;1.00
15638;DHT22;26604;53.596;10.042;2022-10-16T00:19:36;20.50;1.00
15638;DHT22;26604;53.596;10.042;2022-10-16T00:22:03;20.50;1.00
15638;DHT22;26604;53.596;10.042;2022-10-16T00:24:30;20.50;1.00
15638;DHT22;26604;53.596;10.042;2022-10-16T00:26:58;20.50;1.00
15638;DHT22;26604;53.596;10.042;2022-10-16T00:29:25;20.50;1.00
15638;DHT22;26604;53.596;10.042;2022-10-16T00:31:51;20.50;1.00
15638;DHT22;26604;53.596;10.042;2022-10-16T00:34:18;20.50;1.00
15638;DHT22;26604;53.596;10.042;2022-10-16T00:36:46;20.50;1.00
15638;DHT22;26604;53.596;10.042;2022-10-16T00:39:13;20.50;1.00
15638;DHT22;26604;53.596;10.042;2022-10-16T00:41:40;20.50;1.00
15638;DHT22;26604;53.596;10.042;2022-10-16T00:44:43;20.50;1.00
15638;DHT22;26604;53.596;10.042;2022-10-16T00:47:11;20.50;1.00
15638;DHT22;26604;53.596;10.042;2022-10-16T00:49:39;20.50;1.00
15638;DHT22;26604;53.596;10.042;2022-10-16T00:52:06;20.50;1.00
15638;DHT22;26604;53.596;10.042;2022-10-16T00:54:33;20.50;1.00
15638;DHT22;26604;53.596;10.042;2022-10-16T00:57:03;20.50;1.00
15638;DHT22;26604;53.596;10.042;2022-10-16T00:59:32;20.50;1.00
15638;DHT22;26604;53.596;10.042;2022-10-16T01:02:02;20.50;1.00
15638;DHT22;26604;53.596;10.042;2022-10-16T01:04:33;20.50;1.00
15638;DHT22;26604;53.596;10.042;2022-10-16T01:07:10;20.50;1.00
15638;DHT22;26604;53.596;10.042;2022-10-16T01:09:47;20.50;1.00
15638;DHT22;26604;53.596;10.042;2022-10-16T01:12:26;20.50;1.00
15638;DHT22;26604;53.596;10.042;2022-10-16T01:14:54;20.50;1.00
15638;DHT22;26604;53.596;10.042;2022-10-16T01:17:30;20.50;1.00
15638;DHT22;26604;53.596;10.042;2022-10-16T01:20:11;20.50;1.00
15638;DHT22;26604;53.596;10.042;2022-10-16T01:22:50;20.50;1.00
15638;DHT22;26604;53.596;10.042;2022-10-16T01:25:29;20.50;1.00
15638;DHT22;26604;53.596;10.042;2022-10-16T01:27:59;20.50;1.00
15638;DHT22;26604;53.596;10.042;2022-10-16T01:30:30;20.50;1.00
15638;DHT22;26604;53.596;10.042;2022-10-16T01:33:02;20.50;1.00
15638;DHT22;26604;53.596;10.042;2022-10-16T01:35:36;20.50;1.00
15638;DHT22;26604;53.596;10.042;2022-10-16T01:38:07;20.50;1.00
15638;DHT22;26604;53.596;10.042;2022-10-16T01:40:39;20.50;1.00
15638;DHT22;26604;53.596;10.042;2022-10-16T01:43:10;20.50;1.00
15638;DHT22;26604;53.596;10.042;2022-10-16T01:45:41;20.50;1.00
15638;DHT22;26604;53.596;10.042;2022-10-16T01:48:12;20.50;1.00
15638;DHT22;26604;53.596;10.042;2022-10-16T01:50:41;20.50;1.00
15638;DHT22;26604;53.596;10.042;2022-10-16T01:53:12;20.50;1.00
15638;DHT22;26604;53.596;10.042;2022-10-16T01:55:43;20.50;1.00
15638;DHT22;26604;53.596;10.042;2022-10-16T01:58:13;20.50;1.00
15638;DHT22;26604;53.596;10.042;2022-10-16T02:00:44;20.50;1.00
15638;DHT22;26604;53.596;10.042;2022-10-16T02:03:13;20.50;1.00
15638;DHT22;26604;53.596;10.042;2022-10-16T02:05:45;20.50;1.00
15638;DHT22;26604;53.596;10.042;2022-10-16T02:08:13;20.50;1.00
15638;DHT22;26604;53.596;10.042;2022-10-16T02:10:40;20.50;1.00
15638;DHT22;26604;53.596;10.042;2022-10-16T02:13:10;20.50;1.00
15638;DHT22;26604;53.596;10.042;2022-10-16T02:15:38;20.50;1.00
15638;DHT22;26604;53.596;10.042;2022-10-16T02:18:06;20.50;1.00
15638;DHT22;26604;53.596;10.042;2022-10-16T02:20:38;20.50;1.00
15638;DHT22;26604;53.596;10.042;2022-10-16T02:23:10;20.50;1.00
15638;DHT22;26604;53.596;10.042;2022-10-16T02:25:41;20.50;1.00
15638;DHT22;26604;53.596;10.042;2022-10-16T02:28:15;20.60;1.00
15638;DHT22;26604;53.596;10.042;2022-10-16T02:30:46;20.60;1.00
15638;DHT22;26604;53.596;10.042;2022-10-16T02:33:16;20.70;1.00
15638;DHT22;26604;53.596;10.042;2022-10-16T02:35:46;20.70;1.00
15638;DHT22;26604;53.596;10.042;2022-10-16T02:38:14;20.70;1.00
15638;DHT22;26604;53.596;10.042;2022-10-16T02:40:41;20.70;1.00
15638;DHT22;26604;53.596;10.042;2022-10-16T02:43:09;20.70;1.00
15638;DHT22;26604;53.596;10.042;2022-10-16T02:45:36;20.60;1.00
15638;DHT22;26604;53.596;10.042;2022-10-16T02:48:05;20.60;1.00
15638;DHT22;26604;53.596;10.042;2022-10-16T02:50:32;20.60;1.00
15638;DHT22;26604;53.596;10.042;2022-10-16T02:52:58;20.60;1.00
15638;DHT22;26604;53.596;10.042;2022-10-16T02:55:25;20.60;1.00
15638;DHT22;26604;53.596;10.042;2022-10-16T02:57:53;20.60;1.00
15638;DHT22;26604;53.596;10.042;2022-10-16T03:00:21;20.60;1.00
15638;DHT22;26604;53.596;10.042;2022-10-16T03:02:47;20.60;1.00
15638;DHT22;26604;53.596;10.042;2022-10-16T03:05:16;20.60;1.00
15638;DHT22;26604;53.596;10.042;2022-10-16T03:07:43;20.60;1.00
15638;DHT22;26604;53.596;10.042;2022-10-16T03:10:09;20.60;1.00
15638;DHT22;26604;53.596;10.042;2022-10-16T03:12:36;20.60;1.00
15638;DHT22;26604;53.596;10.042;2022-10-16T03:15:03;20.60;1.00
15638;DHT22;26604;53.596;10.042;2022-10-16T03:17:31;20.60;1.00
15638;DHT22;26604;53.596;10.042;2022-10-16T03:19:58;20.50;1.00
15638;DHT22;26604;53.596;10.042;2022-10-16T03:22:26;20.50;1.00
15638;DHT22;26604;53.596;10.042;2022-10-16T03:24:53;20.50;1.00
15638;DHT22;26604;53.596;10.042;2022-10-16T03:27:20;20.50;1.00
15638;DHT22;26604;53.596;10.042;2022-10-16T03:29:47;20.50;1.00
15638;DHT22;26604;53.596;10.042;2022-10-16T03:32:14;20.50;1.00
15638;DHT22;26604;53.596;10.042;2022-10-16T03:34:41;20.50;1.00
15638;DHT22;26604;53.596;10.042;2022-10-16T03:37:08;20.50;1.00
15638;DHT22;26604;53.596;10.042;2022-10-16T03:39:36;20.50;1.00
15638;DHT22;26604;53.596;10.042;2022-10-16T03:42:03;20.60;1.00
15638;DHT22;26604;53.596;10.042;2022-10-16T03:44:29;20.50;1.00
15638;DHT22;26604;53.596;10.042;2022-10-16T03:46:56;20.50;1.00
15638;DHT22;26604;53.596;10.042;2022-10-16T03:49:23;20.50;1.00
15638;DHT22;26604;53.596;10.042;2022-10-16T03:51:50;20.50;1.00
15638;DHT22;26604;53.596;10.042;2022-10-16T03:54:17;20.50;1.00
15638;DHT22;26604;53.596;10.042;2022-10-16T03:56:45;20.50;1.00
15638;DHT22;26604;53.596;10.042;2022-10-16T03:59:12;20.50;1.00
15638;DHT22;26604;53.596;10.042;2022-10-16T04:01:39;20.50;1.00
15638;DHT22;26604;53.596;10.042;2022-10-16T04:04:06;20.50;1.00
15638;DHT22;26604;53.596;10.042;2022-10-16T04:06:32;20.50;1.00
15638;DHT22;26604;53.596;10.042;2022-10-16T04:08:59;20.50;1.00
15638;DHT22;26604;53.596;10.042;2022-10-16T04:11:26;20.50;1.00
15638;DHT22;26604;53.596;10.042;2022-10-16T04:13:55;20.50;1.00
15638;DHT22;26604;53.596;10.042;2022-10-16T04:16:21;20.50;1.00
15638;DHT22;26604;53.596;10.042;2022-10-16T04:18:48;20.50;1.00
15638;DHT22;26604;53.596;10.042;2022-10-16T04:21:15;20.50;1.00
15638;DHT22;26604;53.596;10.042;2022-10-16T04:23:42;20.50;1.00
15638;DHT22;26604;53.596;10.042;2022-10-16T04:26:09;20.50;1.00
15638;DHT22;26604;53.596;10.042;2022-10-16T04:28:36;20.50;1.00
15638;DHT22;26604;53.596;10.042;2022-10-16T04:31:05;20.50;1.00
15638;DHT22;26604;53.596;10.042;2022-10-16T04:33:33;20.50;1.00
15638;DHT22;26604;53.596;10.042;2022-10-16T04:36:00;20.50;1.00
15638;DHT22;26604;53.596;10.042;2022-10-16T04:38:28;20.50;1.00
15638;DHT22;26604;53.596;10.042;2022-10-16T04:40:55;20.50;1.00
15638;DHT22;26604;53.596;10.042;2022-10-16T04:43:22;20.50;1.00
15638;DHT22;26604;53.596;10.042;2022-10-16T04:45:49;20.50;1.00
15638;DHT22;26604;53.596;10.042;2022-10-16T04:48:18;20.50;1.00
15638;DHT22;26604;53.596;10.042;2022-10-16T04:50:45;20.50;1.00
15638;DHT22;26604;53.596;10.042;2022-10-16T04:53:12;20.50;1.00
15638;DHT22;26604;53.596;10.042;2022-10-16T04:55:39;20.50;1.00
15638;DHT22;26604;53.596;10.042;2022-10-16T04:58:07;20.50;1.00
15638;DHT22;26604;53.596;10.042;2022-10-16T05:00:34;20.50;1.00
15638;DHT22;26604;53.596;10.042;2022-10-16T05:03:02;20.50;1.00
15638;DHT22;26604;53.596;10.042;2022-10-16T05:05:32;20.50;1.00
15638;DHT22;26604;53.596;10.042;2022-10-16T05:07:59;20.50;1.00
15638;DHT22;26604;53.596;10.042;2022-10-16T05:10:26;20.50;1.00
15638;DHT22;26604;53.596;10.042;2022-10-16T05:12:53;20.50;1.00
15638;DHT22;26604;53.596;10.042;2022-10-16T05:15:20;20.50;1.00
15638;DHT22;26604;53.596;10.042;2022-10-16T05:17:52;20.50;1.00
15638;DHT22;26604;53.596;10.042;2022-10-16T05:20:19;20.50;1.00
15638;DHT22;26604;53.596;10.042;2022-10-16T05:22:47;20.50;1.00
15638;DHT22;26604;53.596;10.042;2022-10-16T05:25:14;20.50;1.00
15638;DHT22;26604;53.596;10.042;2022-10-16T05:27:41;20.50;1.00
15638;DHT22;26604;53.596;10.042;2022-10-16T05:30:09;20.50;1.00
15638;DHT22;26604;53.596;10.042;2022-10-16T05:32:36;20.50;1.00
15638;DHT22;26604;53.596;10.042;2022-10-16T05:35:03;20.50;1.00
15638;DHT22;26604;53.596;10.042;2022-10-16T05:37:30;20.50;1.00
15638;DHT22;26604;53.596;10.042;2022-10-16T05:39:58;20.50;1.00
15638;DHT22;26604;53.596;10.042;2022-10-16T05:42:25;20.50;1.00
15638;DHT22;26604;53.596;10.042;2022-10-16T05:44:52;20.50;1.00
15638;DHT22;26604;53.596;10.042;2022-10-16T05:47:19;20.50;1.00
15638;DHT22;26604;53.596;10.042;2022-10-16T05:49:46;20.50;1.00
15638;DHT22;26604;53.596;10.042;2022-10-16T05:52:13;20.50;1.00
15638;DHT22;26604;53.596;10.042;2022-10-16T05:54:40;20.50;1.00
15638;DHT22;26604;53.596;10.042;2022-10-16T05:57:08;20.50;1.00
15638;DHT22;26604;53.596;10.042;2022-10-16T05:59:35;20.50;1.00
15638;DHT22;26604;53.596;10.042;2022-10-16T06:02:02;20.50;1.00
15638;DHT22;26604;53.596;10.042;2022-10-16T06:04:29;20.50;1.00
15638;DHT22;26604;53.596;10.042;2022-10-16T06:06:58;20.50;1.00
15638;DHT22;26604;53.596;10.042;2022-10-16T06:09:26;20.50;1.00
15638;DHT22;26604;53.596;10.042;2022-10-16T06:11:53;20.50;1.00
15638;DHT22;26604;53.596;10.042;2022-10-16T06:14:21;20.50;1.00
15638;DHT22;26604;53.596;10.042;2022-10-16T06:16:48;20.50;1.00
15638;DHT22;26604;53.596;10.042;2022-10-16T06:19:15;20.50;1.00
15638;DHT22;26604;53.596;10.042;2022-10-16T06:21:43;20.50;1.00
15638;DHT22;26604;53.596;10.042;2022-10-16T06:24:10;20.50;1.00
15638;DHT22;26604;53.596;10.042;2022-10-16T06:26:37;20.50;1.00
15638;DHT22;26604;53.596;10.042;2022-10-16T06:29:04;20.50;1.00
15638;DHT22;26604;53.596;10.042;2022-10-16T06:31:33;20.50;1.00
15638;DHT22;26604;53.596;10.042;2022-10-16T06:34:00;20.50;1.00
15638;DHT22;26604;53.596;10.042;2022-10-16T06:36:28;20.50;1.00
15638;DHT22;26604;53.596;10.042;2022-10-16T06:38:54;20.50;1.00
15638;DHT22;26604;53.596;10.042;2022-10-16T06:41:22;20.50;1.00
15638;DHT22;26604;53.596;10.042;2022-10-16T06:43:50;20.50;1.00
15638;DHT22;26604;53.596;10.042;2022-10-16T06:46:18;20.50;1.00
15638;DHT22;26604;53.596;10.042;2022-10-16T06:48:47;20.50;1.00
15638;DHT22;26604;53.596;10.042;2022-10-16T06:51:15;20.50;1.00
15638;DHT22;26604;53.596;10.042;2022-10-16T06:53:44;20.50;1.00
15638;DHT22;26604;53.596;10.042;2022-10-16T06:56:12;20.50;1.00
15638;DHT22;26604;53.596;10.042;2022-10-16T06:58:40;20.50;1.00
15638;DHT22;26604;53.596;10.042;2022-10-16T07:01:07;20.50;1.00
15638;DHT22;26604;53.596;10.042;2022-10-16T07:03:36;20.50;1.00
15638;DHT22;26604;53.596;10.042;2022-10-16T07:06:06;20.50;1.00
15638;DHT22;26604;53.596;10.042;2022-10-16T07:08:34;20.50;1.00
15638;DHT22;26604;53.596;10.042;2022-10-16T07:11:02;20.50;1.00
15638;DHT22;26604;53.596;10.042;2022-10-16T07:13:29;20.50;1.00
15638;DHT22;26604;53.596;10.042;2022-10-16T07:15:56;20.60;1.00
15638;DHT22;26604;53.596;10.042;2022-10-16T07:18:23;20.60;1.00
15638;DHT22;26604;53.596;10.042;2022-10-16T07:20:52;20.60;1.00
15638;DHT22;26604;53.596;10.042;2022-10-16T07:23:21;20.60;1.00
15638;DHT22;26604;53.596;10.042;2022-10-16T07:25:53;20.60;1.00
15638;DHT22;26604;53.596;10.042;2022-10-16T07:28:21;20.60;1.00
15638;DHT22;26604;53.596;10.042;2022-10-16T07:30:48;20.60;1.00
15638;DHT22;26604;53.596;10.042;2022-10-16T07:33:15;20.60;1.00
15638;DHT22;26604;53.596;10.042;2022-10-16T07:35:48;20.60;1.00
15638;DHT22;26604;53.596;10.042;2022-10-16T07:38:15;20.60;1.00
15638;DHT22;26604;53.596;10.042;2022-10-16T07:40:43;20.60;1.00
15638;DHT22;26604;53.596;10.042;2022-10-16T07:43:10;20.60;1.00
15638;DHT22;26604;53.596;10.042;2022-10-16T07:45:45;20.60;1.00
15638;DHT22;26604;53.596;10.042;2022-10-16T07:48:12;20.60;1.00
15638;DHT22;26604;53.596;10.042;2022-10-16T07:50:39;20.60;1.00
15638;DHT22;26604;53.596;10.042;2022-10-16T07:53:06;20.60;1.00
15638;DHT22;26604;53.596;10.042;2022-10-16T07:55:33;20.70;1.00
15638;DHT22;26604;53.596;10.042;2022-10-16T07:58:01;20.80;1.00
15638;DHT22;26604;53.596;10.042;2022-10-16T08:00:28;20.80;1.00
15638;DHT22;26604;53.596;10.042;2022-10-16T08:02:56;20.80;1.00
15638;DHT22;26604;53.596;10.042;2022-10-16T08:05:25;20.80;1.00
15638;DHT22;26604;53.596;10.042;2022-10-16T08:07:53;20.90;1.00
15638;DHT22;26604;53.596;10.042;2022-10-16T08:10:21;20.90;1.00
15638;DHT22;26604;53.596;10.042;2022-10-16T08:12:48;20.90;1.00
15638;DHT22;26604;53.596;10.042;2022-10-16T08:15:16;20.90;1.00
15638;DHT22;26604;53.596;10.042;2022-10-16T08:17:43;20.90;1.00
15638;DHT22;26604;53.596;10.042;2022-10-16T08:20:11;20.90;1.00
15638;DHT22;26604;53.596;10.042;2022-10-16T08:22:37;20.90;1.00
15638;DHT22;26604;53.596;10.042;2022-10-16T08:25:05;20.80;1.00
15638;DHT22;26604;53.596;10.042;2022-10-16T08:27:32;20.80;1.00
15638;DHT22;26604;53.596;10.042;2022-10-16T08:29:59;20.80;1.00
15638;DHT22;26604;53.596;10.042;2022-10-16T08:32:27;20.80;1.00
15638;DHT22;26604;53.596;10.042;2022-10-16T08:34:54;20.80;1.00
15638;DHT22;26604;53.596;10.042;2022-10-16T08:37:21;20.80;1.00
15638;DHT22;26604;53.596;10.042;2022-10-16T08:39:48;20.80;1.00
15638;DHT22;26604;53.596;10.042;2022-10-16T08:42:32;20.80;1.00
15638;DHT22;26604;53.596;10.042;2022-10-16T08:45:15;20.80;1.00
15638;DHT22;26604;53.596;10.042;2022-10-16T08:47:56;20.80;1.00
15638;DHT22;26604;53.596;10.042;2022-10-16T08:50:28;20.80;1.00
15638;DHT22;26604;53.596;10.042;2022-10-16T08:52:57;20.80;1.00
15638;DHT22;26604;53.596;10.042;2022-10-16T08:55:32;20.80;1.00
15638;DHT22;26604;53.596;10.042;2022-10-16T08:58:00;20.80;1.00
15638;DHT22;26604;53.596;10.042;2022-10-16T09:00:28;20.90;1.00
15638;DHT22;26604;53.596;10.042;2022-10-16T09:03:05;20.90;1.00
15638;DHT22;26604;53.596;10.042;2022-10-16T09:05:54;20.90;1.00
15638;DHT22;26604;53.596;10.042;2022-10-16T09:08:31;21.00;1.00
15638;DHT22;26604;53.596;10.042;2022-10-16T09:11:05;21.00;1.00
15638;DHT22;26604;53.596;10.042;2022-10-16T09:13:43;21.10;1.00
15638;DHT22;26604;53.596;10.042;2022-10-16T09:16:16;21.10;1.00
15638;DHT22;26604;53.596;10.042;2022-10-16T09:18:51;21.10;1.00
15638;DHT22;26604;53.596;10.042;2022-10-16T09:21:21;21.20;1.00
15638;DHT22;26604;53.596;10.042;2022-10-16T09:23:50;21.20;1.00
15638;DHT22;26604;53.596;10.042;2022-10-16T09:26:17;21.20;1.00
15638;DHT22;26604;53.596;10.042;2022-10-16T09:28:45;21.20;1.00
15638;DHT22;26604;53.596;10.042;2022-10-16T09:31:19;21.30;1.00
15638;DHT22;26604;53.596;10.042;2022-10-16T09:33:52;21.30;1.00
15638;DHT22;26604;53.596;10.042;2022-10-16T09:36:20;21.30;1.00
15638;DHT22;26604;53.596;10.042;2022-10-16T09:38:48;21.20;1.00
15638;DHT22;26604;53.596;10.042;2022-10-16T09:41:18;21.20;1.00
15638;DHT22;26604;53.596;10.042;2022-10-16T09:43:53;21.20;1.00
15638;DHT22;26604;53.596;10.042;2022-10-16T09:46:28;21.20;1.00
15638;DHT22;26604;53.596;10.042;2022-10-16T09:48:59;21.20;1.00
15638;DHT22;26604;53.596;10.042;2022-10-16T09:51:28;21.20;1.00
15638;DHT22;26604;53.596;10.042;2022-10-16T09:53:57;21.20;1.00
15638;DHT22;26604;53.596;10.042;2022-10-16T09:56:27;21.20;1.00
15638;DHT22;26604;53.596;10.042;2022-10-16T09:58:55;21.20;1.00
15638;DHT22;26604;53.596;10.042;2022-10-16T10:01:26;21.30;1.00
15638;DHT22;26604;53.596;10.042;2022-10-16T10:03:57;21.40;1.00
15638;DHT22;26604;53.596;10.042;2022-10-16T10:08:59;21.40;1.00
15638;DHT22;26604;53.596;10.042;2022-10-16T10:11:47;21.40;1.00
15638;DHT22;26604;53.596;10.042;2022-10-16T10:14:23;21.30;1.00
15638;DHT22;26604;53.596;10.042;2022-10-16T10:16:52;21.30;1.00
15638;DHT22;26604;53.596;10.042;2022-10-16T10:19:29;21.20;1.00
15638;DHT22;26604;53.596;10.042;2022-10-16T10:21:55;21.20;1.00
15638;DHT22;26604;53.596;10.042;2022-10-16T10:24:22;21.20;1.00
15638;DHT22;26604;53.596;10.042;2022-10-16T10:26:54;21.20;1.00
15638;DHT22;26604;53.596;10.042;2022-10-16T10:29:42;21.30;1.00
15638;DHT22;26604;53.596;10.042;2022-10-16T10:32:18;21.10;1.00
15638;DHT22;26604;53.596;10.042;2022-10-16T10:35:11;21.10;1.00
15638;DHT22;26604;53.596;10.042;2022-10-16T10:37:51;21.10;1.00
15638;DHT22;26604;53.596;10.042;2022-10-16T10:40:30;21.10;1.00
15638;DHT22;26604;53.596;10.042;2022-10-16T10:43:04;21.10;1.00
15638;DHT22;26604;53.596;10.042;2022-10-16T10:45:41;21.10;1.00
15638;DHT22;26604;53.596;10.042;2022-10-16T10:48:24;21.10;1.00
15638;DHT22;26604;53.596;10.042;2022-10-16T10:50:59;21.10;1.00
15638;DHT22;26604;53.596;10.042;2022-10-16T10:53:39;21.10;1.00
15638;DHT22;26604;53.596;10.042;2022-10-16T10:56:19;21.10;1.00
15638;DHT22;26604;53.596;10.042;2022-10-16T10:59:15;21.10;1.00
15638;DHT22;26604;53.596;10.042;2022-10-16T11:01:50;21.10;1.00
15638;DHT22;26604;53.596;10.042;2022-10-16T11:07:36;21.10;1.00
15638;DHT22;26604;53.596;10.042;2022-10-16T11:10:12;21.10;1.00
15638;DHT22;26604;53.596;10.042;2022-10-16T11:12:43;21.10;1.00
15638;DHT22;26604;53.596;10.042;2022-10-16T11:15:14;21.10;1.00
15638;DHT22;26604;53.596;10.042;2022-10-16T11:17:46;21.10;1.00
15638;DHT22;26604;53.596;10.042;2022-10-16T11:20:18;21.10;1.00
15638;DHT22;26604;53.596;10.042;2022-10-16T11:22:51;21.10;1.00
15638;DHT22;26604;53.596;10.042;2022-10-16T11:25:22;21.10;1.00
15638;DHT22;26604;53.596;10.042;2022-10-16T11:27:53;21.10;1.00
15638;DHT22;26604;53.596;10.042;2022-10-16T11:30:23;21.10;1.00
15638;DHT22;26604;53.596;10.042;2022-10-16T11:33:02;21.10;1.00
15638;DHT22;26604;53.596;10.042;2022-10-16T11:35:38;21.10;1.00
15638;DHT22;26604;53.596;10.042;2022-10-16T11:38:14;21.10;1.00
15638;DHT22;26604;53.596;10.042;2022-10-16T11:40:43;21.10;1.00
15638;DHT22;26604;53.596;10.042;2022-10-16T11:43:17;21.10;1.00
15638;DHT22;26604;53.596;10.042;2022-10-16T11:45:48;21.10;1.00
15638;DHT22;26604;53.596;10.042;2022-10-16T11:48:23;21.10;1.00
15638;DHT22;26604;53.596;10.042;2022-10-16T11:50:54;21.10;1.00
15638;DHT22;26604;53.596;10.042;2022-10-16T11:53:35;21.10;1.00
15638;DHT22;26604;53.596;10.042;2022-10-16T11:56:05;21.10;1.00
15638;DHT22;26604;53.596;10.042;2022-10-16T11:58:36;21.10;1.00
15638;DHT22;26604;53.596;10.042;2022-10-16T12:01:17;21.10;1.00
15638;DHT22;26604;53.596;10.042;2022-10-16T12:03:48;21.10;1.00
15638;DHT22;26604;53.596;10.042;2022-10-16T12:06:25;21.10;1.00
15638;DHT22;26604;53.596;10.042;2022-10-16T12:08:58;21.10;1.00
15638;DHT22;26604;53.596;10.042;2022-10-16T12:11:34;21.10;1.00
15638;DHT22;26604;53.596;10.042;2022-10-16T12:14:16;21.10;1.00
15638;DHT22;26604;53.596;10.042;2022-10-16T12:16:51;21.10;1.00
15638;DHT22;26604;53.596;10.042;2022-10-16T12:19:20;21.10;1.00
15638;DHT22;26604;53.596;10.042;2022-10-16T12:21:48;21.10;1.00
15638;DHT22;26604;53.596;10.042;2022-10-16T12:24:30;21.10;1.00
15638;DHT22;26604;53.596;10.042;2022-10-16T12:26:57;21.10;1.00
15638;DHT22;26604;53.596;10.042;2022-10-16T12:29:32;21.10;1.00
15638;DHT22;26604;53.596;10.042;2022-10-16T12:31:59;21.10;1.00
15638;DHT22;26604;53.596;10.042;2022-10-16T12:34:29;21.10;1.00
15638;DHT22;26604;53.596;10.042;2022-10-16T12:37:08;21.10;1.00
15638;DHT22;26604;53.596;10.042;2022-10-16T12:39:37;21.10;1.00
15638;DHT22;26604;53.596;10.042;2022-10-16T12:42:06;21.10;1.00
15638;DHT22;26604;53.596;10.042;2022-10-16T12:44:45;21.10;1.00
15638;DHT22;26604;53.596;10.042;2022-10-16T12:47:23;21.10;1.00
15638;DHT22;26604;53.596;10.042;2022-10-16T12:49:51;21.10;1.00
15638;DHT22;26604;53.596;10.042;2022-10-16T12:52:27;21.10;1.00
15638;DHT22;26604;53.596;10.042;2022-10-16T12:54:58;21.10;1.00
15638;DHT22;26604;53.596;10.042;2022-10-16T12:57:35;21.10;1.00
15638;DHT22;26604;53.596;10.042;2022-10-16T13:00:13;21.10;1.00
15638;DHT22;26604;53.596;10.042;2022-10-16T13:03:04;21.10;1.00
15638;DHT22;26604;53.596;10.042;2022-10-16T13:05:46;21.10;1.00
15638;DHT22;26604;53.596;10.042;2022-10-16T13:08:30;21.10;1.00
15638;DHT22;26604;53.596;10.042;2022-10-16T13:11:08;21.10;1.00
15638;DHT22;26604;53.596;10.042;2022-10-16T13:13:53;21.10;1.00
15638;DHT22;26604;53.596;10.042;2022-10-16T13:16:28;21.10;1.00
15638;DHT22;26604;53.596;10.042;2022-10-16T13:19:06;21.10;1.00
15638;DHT22;26604;53.596;10.042;2022-10-16T13:21:42;21.10;1.00
15638;DHT22;26604;53.596;10.042;2022-10-16T13:24:19;21.10;1.00
15638;DHT22;26604;53.596;10.042;2022-10-16T13:26:56;21.10;1.00
15638;DHT22;26604;53.596;10.042;2022-10-16T13:29:30;21.10;1.00
15638;DHT22;26604;53.596;10.042;2022-10-16T13:31:58;21.10;1.00
15638;DHT22;26604;53.596;10.042;2022-10-16T13:34:25;21.10;1.00
15638;DHT22;26604;53.596;10.042;2022-10-16T13:36:53;21.10;1.00
15638;DHT22;26604;53.596;10.042;2022-10-16T13:39:24;21.10;1.00
15638;DHT22;26604;53.596;10.042;2022-10-16T13:42:06;21.10;1.00
15638;DHT22;26604;53.596;10.042;2022-10-16T13:44:38;21.10;1.00
15638;DHT22;26604;53.596;10.042;2022-10-16T13:47:10;21.10;1.00
15638;DHT22;26604;53.596;10.042;2022-10-16T13:49:41;21.10;1.00
15638;DHT22;26604;53.596;10.042;2022-10-16T13:52:17;21.10;1.00
15638;DHT22;26604;53.596;10.042;2022-10-16T13:54:44;21.10;1.00
15638;DHT22;26604;53.596;10.042;2022-10-16T13:57:14;21.10;1.00
15638;DHT22;26604;53.596;10.042;2022-10-16T13:59:41;21.10;1.00
15638;DHT22;26604;53.596;10.042;2022-10-16T14:02:17;21.10;1.00
15638;DHT22;26604;53.596;10.042;2022-10-16T14:04:45;21.10;1.00
15638;DHT22;26604;53.596;10.042;2022-10-16T14:07:18;21.10;1.00
15638;DHT22;26604;53.596;10.042;2022-10-16T14:09:48;21.10;1.00
15638;DHT22;26604;53.596;10.042;2022-10-16T14:12:17;21.10;1.00
15638;DHT22;26604;53.596;10.042;2022-10-16T14:14:46;21.10;1.00
15638;DHT22;26604;53.596;10.042;2022-10-16T14:17:14;21.10;1.00
15638;DHT22;26604;53.596;10.042;2022-10-16T14:19:46;21.10;1.00
15638;DHT22;26604;53.596;10.042;2022-10-16T14:22:27;21.10;1.00
15638;DHT22;26604;53.596;10.042;2022-10-16T14:24:55;21.10;1.00
15638;DHT22;26604;53.596;10.042;2022-10-16T14:27:29;21.10;1.00
15638;DHT22;26604;53.596;10.042;2022-10-16T14:30:15;21.10;1.00
15638;DHT22;26604;53.596;10.042;2022-10-16T14:32:53;21.10;1.00
15638;DHT22;26604;53.596;10.042;2022-10-16T14:35:29;21.10;1.00
15638;DHT22;26604;53.596;10.042;2022-10-16T14:37:57;21.10;1.00
15638;DHT22;26604;53.596;10.042;2022-10-16T14:40:27;21.10;1.00
15638;DHT22;26604;53.596;10.042;2022-10-16T14:42:56;21.10;1.00
15638;DHT22;26604;53.596;10.042;2022-10-16T14:45:26;21.10;1.00
15638;DHT22;26604;53.596;10.042;2022-10-16T14:47:55;21.10;1.00
15638;DHT22;26604;53.596;10.042;2022-10-16T14:50:22;21.10;1.00
15638;DHT22;26604;53.596;10.042;2022-10-16T14:52:49;21.00;1.00
15638;DHT22;26604;53.596;10.042;2022-10-16T14:55:17;21.00;1.00
15638;DHT22;26604;53.596;10.042;2022-10-16T14:57:44;21.00;1.00
15638;DHT22;26604;53.596;10.042;2022-10-16T15:00:21;21.00;1.00
15638;DHT22;26604;53.596;10.042;2022-10-16T15:02:49;21.00;1.00
15638;DHT22;26604;53.596;10.042;2022-10-16T15:05:18;21.00;1.00
15638;DHT22;26604;53.596;10.042;2022-10-16T15:07:46;21.00;1.00
15638;DHT22;26604;53.596;10.042;2022-10-16T15:10:15;21.00;1.00
15638;DHT22;26604;53.596;10.042;2022-10-16T15:12:42;21.00;1.00
15638;DHT22;26604;53.596;10.042;2022-10-16T15:15:28;21.00;1.00
15638;DHT22;26604;53.596;10.042;2022-10-16T15:17:57;21.00;1.00
15638;DHT22;26604;53.596;10.042;2022-10-16T15:20:26;21.00;1.00
15638;DHT22;26604;53.596;10.042;2022-10-16T15:22:54;21.00;1.00
15638;DHT22;26604;53.596;10.042;2022-10-16T15:25:30;21.00;1.00
15638;DHT22;26604;53.596;10.042;2022-10-16T15:27:57;21.00;1.00
15638;DHT22;26604;53.596;10.042;2022-10-16T15:30:26;21.00;1.00
15638;DHT22;26604;53.596;10.042;2022-10-16T15:32:53;21.00;1.00
15638;DHT22;26604;53.596;10.042;2022-10-16T15:35:20;21.00;1.00
15638;DHT22;26604;53.596;10.042;2022-10-16T15:37:47;21.00;1.00
15638;DHT22;26604;53.596;10.042;2022-10-16T15:40:15;21.00;1.00
15638;DHT22;26604;53.596;10.042;2022-10-16T15:42:42;21.00;1.00
15638;DHT22;26604;53.596;10.042;2022-10-16T15:45:10;21.00;1.00
15638;DHT22;26604;53.596;10.042;2022-10-16T15:47:39;21.00;1.00
15638;DHT22;26604;53.596;10.042;2022-10-16T15:50:08;21.00;1.00
15638;DHT22;26604;53.596;10.042;2022-10-16T15:52:36;20.90;1.00
15638;DHT22;26604;53.596;10.042;2022-10-16T15:55:05;20.90;1.00
15638;DHT22;26604;53.596;10.042;2022-10-16T15:57:32;20.90;1.00